createdAt,value
2019-05-25T03:24:03.667Z,20.44
2019-05-25T03:26:38.820Z,20.14
2019-05-25T03:29:13.311Z,20.02
2019-05-25T03:31:47.079Z,19.98
2019-05-25T03:36:13.083Z,20.12
2019-05-25T03:38:48.171Z,20.13
2019-05-25T07:43:02.780Z,22.59
2019-05-25T07:45:36.034Z,22.76
2019-05-25T07:48:09.001Z,22.95
2019-05-25T07:50:42.111Z,23.11
2019-05-25T07:53:15.194Z,23.26
2019-05-25T07:55:48.204Z,23.40
2019-05-25T07:58:23.834Z,23.51
2019-05-25T08:00:56.923Z,23.64
2019-05-25T08:03:30.038Z,23.76
2019-05-25T08:06:03.050Z,23.86
2019-05-25T08:08:36.102Z,23.97
2019-05-25T08:11:10.392Z,24.08
2019-05-25T08:13:44.434Z,24.19
2019-05-25T08:16:17.580Z,24.31
2019-05-25T08:18:50.543Z,24.31
2019-05-25T08:21:25.437Z,24.32
2019-05-25T08:23:58.771Z,24.36
2019-05-25T08:26:32.054Z,24.38
2019-05-25T08:29:05.665Z,24.41
2019-05-25T08:31:39.580Z,24.39
2019-05-25T08:34:14.227Z,24.39
2019-05-25T08:36:49.041Z,24.38
2019-05-25T08:39:24.612Z,24.38
2019-05-25T08:42:00.420Z,24.41
2019-05-25T08:44:36.150Z,24.43
2019-05-25T08:47:10.498Z,24.45
2019-05-25T08:49:45.107Z,24.48
2019-05-25T08:52:22.252Z,24.50
2019-05-25T08:54:56.947Z,24.54
2019-05-25T08:57:30.660Z,24.55
2019-05-25T09:00:05.123Z,24.56
2019-05-25T09:02:40.013Z,24.59
2019-05-25T09:05:14.842Z,24.65
2019-05-25T09:07:47.924Z,24.69
2019-05-25T09:10:21.121Z,24.76
2019-05-25T09:12:55.912Z,24.83
2019-05-25T09:15:29.977Z,24.89
2019-05-25T09:18:05.387Z,24.95
2019-05-25T09:20:38.880Z,25.02
2019-05-25T09:23:15.795Z,25.09
2019-05-25T09:25:48.821Z,25.14
2019-05-25T09:28:25.416Z,25.19
2019-05-25T09:30:58.977Z,25.25
2019-05-25T09:33:32.545Z,25.30
2019-05-25T09:36:09.781Z,25.34
2019-05-25T09:38:43.414Z,25.39
2019-05-25T09:41:17.125Z,25.39
2019-05-25T09:43:50.774Z,25.41
2019-05-25T09:46:24.047Z,25.44
2019-05-25T09:48:59.112Z,25.49
2019-05-25T09:51:32.307Z,25.51
2019-05-25T09:54:07.444Z,25.53
2019-05-25T09:56:42.085Z,25.51
2019-05-25T09:59:20.235Z,25.50
2019-05-25T10:01:51.202Z,25.50
2019-05-25T10:04:24.963Z,25.51
2019-05-25T10:06:58.637Z,25.54
2019-05-25T10:09:40.297Z,25.56
2019-05-25T10:12:16.393Z,25.59
2019-05-25T10:14:50.171Z,25.61
2019-05-25T10:17:23.265Z,25.64
2019-05-25T10:19:59.778Z,25.66
2019-05-25T10:22:38.209Z,25.73
2019-05-25T10:25:11.234Z,25.80
2019-05-25T10:27:45.667Z,25.88
2019-05-25T10:30:23.133Z,25.95
2019-05-25T10:32:56.767Z,26.01
2019-05-25T10:35:32.343Z,26.03
2019-05-25T10:38:06.088Z,26.03
2019-05-25T10:40:40.711Z,26.03
2019-05-25T10:43:14.171Z,26.00
2019-05-25T10:45:47.690Z,25.96
2019-05-25T10:48:21.466Z,25.95
2019-05-25T10:50:54.911Z,25.93
2019-05-25T10:53:33.757Z,25.87
2019-05-25T10:56:08.127Z,25.84
2019-05-25T10:58:44.897Z,25.82
2019-05-25T11:01:18.745Z,25.80
2019-05-25T11:03:54.510Z,25.77
2019-05-25T11:06:40.403Z,25.75
2019-05-25T11:09:14.118Z,25.71
2019-05-25T11:11:48.964Z,25.71
2019-05-25T11:14:22.363Z,25.72
2019-05-25T11:16:58.007Z,25.72
2019-05-25T11:19:35.856Z,25.71
2019-05-25T11:22:11.056Z,25.69
2019-05-25T11:32:37.016Z,25.65
2019-05-25T11:35:11.815Z,25.64
2019-05-25T11:37:45.081Z,25.63
2019-05-25T11:40:19.326Z,25.65
2019-05-25T11:42:56.829Z,25.65
2019-05-25T11:45:31.135Z,25.65
2019-05-25T11:48:09.990Z,25.70
2019-05-25T11:50:43.211Z,25.70
2019-05-25T11:53:16.491Z,25.67
2019-05-25T11:55:51.078Z,25.65
2019-05-25T11:58:24.683Z,25.64
2019-05-25T12:00:58.840Z,25.71
2019-05-25T12:03:33.951Z,25.76
2019-05-25T12:06:10.573Z,25.81
2019-05-25T12:08:48.444Z,25.87
2019-05-25T12:11:23.988Z,25.92
2019-05-25T12:13:57.441Z,25.98
2019-05-25T12:16:31.905Z,26.00
2019-05-25T12:19:06.971Z,26.03
2019-05-25T12:21:40.297Z,26.07
2019-05-25T12:24:13.669Z,26.12
2019-05-25T12:26:47.749Z,26.14
2019-05-25T12:29:21.031Z,26.14
2019-05-25T12:32:03.753Z,26.14
2019-05-25T12:34:29.466Z,26.15
2019-05-25T12:37:04.493Z,26.15
2019-05-25T12:39:40.267Z,26.12
2019-05-25T12:42:15.002Z,26.10
2019-05-25T12:44:53.540Z,26.09
2019-05-25T12:47:26.591Z,26.08
2019-05-25T12:49:59.879Z,26.07
2019-05-25T12:52:33.262Z,26.06
2019-05-25T12:55:07.077Z,26.04
2019-05-25T12:57:41.800Z,26.00
2019-05-25T13:00:18.955Z,26.00
2019-05-25T13:02:52.695Z,26.07
2019-05-25T13:05:34.174Z,26.08
2019-05-25T13:08:07.205Z,26.11
2019-05-25T13:10:40.591Z,26.10
2019-05-25T13:13:14.082Z,26.06
2019-05-25T13:15:47.341Z,26.02
2019-05-25T13:18:20.454Z,25.96
2019-05-25T13:20:53.562Z,25.93
2019-05-25T13:23:28.825Z,25.90
2019-05-25T13:26:02.196Z,25.89
2019-05-25T13:28:47.023Z,25.87
2019-05-25T13:31:12.013Z,25.88
2019-05-25T13:33:49.553Z,25.88
2019-05-25T13:36:24.786Z,25.86
2019-05-25T13:38:57.991Z,25.83
2019-05-25T13:41:31.041Z,25.84
2019-05-25T13:44:04.058Z,25.83
2019-05-25T13:46:37.388Z,25.82
2019-05-25T13:49:12.199Z,25.82
2019-05-25T13:51:45.329Z,25.81
2019-05-25T13:54:20.700Z,25.80
2019-05-25T13:56:55.771Z,25.79
2019-05-25T13:59:28.772Z,25.76
2019-05-25T14:02:04.355Z,25.74
2019-05-25T14:04:38.371Z,25.73
2019-05-25T14:07:11.483Z,25.70
2019-05-25T14:09:51.293Z,25.64
2019-05-25T14:12:19.474Z,25.60
2019-05-25T14:14:54.216Z,25.56
2019-05-25T14:17:27.243Z,25.55
2019-05-25T14:20:00.407Z,25.58
2019-05-25T14:22:33.901Z,25.59
2019-05-25T14:25:07.964Z,25.58
2019-05-25T14:27:41.970Z,25.57
2019-05-25T14:30:25.287Z,25.55
2019-05-25T14:32:58.553Z,25.54
2019-05-25T14:35:31.752Z,25.51
2019-05-25T14:38:04.764Z,25.51
2019-05-25T14:40:37.914Z,25.48
2019-05-25T14:43:11.117Z,25.46
2019-05-25T14:45:44.380Z,25.44
2019-05-25T14:48:25.100Z,25.42
2019-05-25T14:50:52.259Z,25.40
2019-05-25T14:53:25.617Z,25.37
2019-05-25T14:55:58.990Z,25.32
2019-05-25T14:58:34.312Z,25.31
2019-05-25T15:01:07.558Z,25.31
2019-05-25T15:03:40.558Z,25.32
2019-05-25T15:06:14.437Z,25.30
2019-05-25T15:08:47.711Z,25.31
2019-05-25T15:11:24.773Z,25.31
2019-05-25T15:13:59.479Z,25.30
2019-05-25T15:16:34.332Z,25.29
2019-05-25T15:19:10.883Z,25.30
2019-05-25T15:21:43.910Z,25.31
2019-05-25T15:24:17.509Z,25.33
2019-05-25T15:26:50.613Z,25.31
2019-05-25T15:29:26.656Z,25.34
2019-05-25T15:31:59.711Z,25.38
2019-05-25T15:34:51.807Z,25.42
2019-05-25T15:37:24.837Z,25.43
